createdAt,value
2023-01-07T00:00:12.472Z,42.58
2023-01-07T00:01:12.459Z,42.45
2023-01-07T00:02:12.500Z,42.07
2023-01-07T00:03:12.417Z,42.07
2023-01-07T00:04:12.392Z,42.11
2023-01-07T00:05:12.462Z,42.02
2023-01-07T00:06:12.367Z,42.11
2023-01-07T00:07:12.382Z,41.94
2023-01-07T00:08:12.371Z,41.90
2023-01-07T00:09:12.400Z,41.98
2023-01-07T00:10:12.329Z,42.07
2023-01-07T00:11:12.323Z,42.07
2023-01-07T00:12:12.323Z,42.15
2023-01-07T00:13:12.305Z,42.28
2023-01-07T00:14:12.298Z,42.41
2023-01-07T00:15:12.323Z,42.54
2023-01-07T00:16:12.325Z,42.24
2023-01-07T00:17:12.272Z,42.41
2023-01-07T00:18:12.283Z,42.67
2023-01-07T00:19:12.276Z,42.37
2023-01-07T00:20:12.257Z,42.32
2023-01-07T00:21:12.242Z,42.24
2023-01-07T00:22:12.240Z,42.11
2023-01-07T00:23:12.200Z,42.02
2023-01-07T00:24:12.239Z,41.90
2023-01-07T00:25:12.188Z,41.52
2023-01-07T00:26:12.169Z,41.40
2023-01-07T00:27:12.176Z,41.31
2023-01-07T00:28:12.199Z,41.31
2023-01-07T00:29:12.146Z,41.23
2023-01-07T00:30:12.136Z,41.23
2023-01-07T00:31:12.171Z,41.44
2023-01-07T00:32:12.140Z,41.77
2023-01-07T00:33:12.109Z,41.90
2023-01-07T00:34:12.105Z,41.94
2023-01-07T00:35:12.094Z,42.58
2023-01-07T00:36:12.108Z,42.45
2023-01-07T00:37:12.127Z,42.32
2023-01-07T00:38:12.075Z,42.32
2023-01-07T00:39:12.082Z,42.54
2023-01-07T00:40:12.038Z,42.45
2023-01-07T00:41:12.033Z,42.58
2023-01-07T00:42:12.077Z,42.54
2023-01-07T00:43:12.004Z,42.58
2023-01-07T00:44:12.003Z,42.71
2023-01-07T00:45:12.059Z,42.94
2023-01-07T00:46:12.097Z,42.94
2023-01-07T00:47:11.964Z,42.94
2023-01-07T00:48:11.965Z,42.94
2023-01-07T00:49:11.982Z,42.85
2023-01-07T00:50:11.945Z,42.85
2023-01-07T00:51:11.942Z,42.76
2023-01-07T00:52:11.936Z,42.85
2023-01-07T00:53:11.912Z,42.80
2023-01-07T00:54:11.943Z,43.11
2023-01-07T00:55:11.932Z,43.20
2023-01-07T00:56:11.935Z,43.47
2023-01-07T00:57:11.863Z,43.43
2023-01-07T00:58:11.868Z,43.84
2023-01-07T00:59:11.865Z,43.93
2023-01-07T01:00:11.867Z,43.93
2023-01-07T01:01:12.066Z,44.40
2023-01-07T01:02:12.013Z,44.64
2023-01-07T01:03:11.840Z,44.83
2023-01-07T01:04:11.816Z,44.93
2023-01-07T01:05:11.791Z,44.93
2023-01-07T01:06:11.785Z,44.93
2023-01-07T01:07:11.791Z,44.69
2023-01-07T01:08:11.759Z,44.93
2023-01-07T01:09:11.746Z,45.03
2023-01-07T01:10:11.768Z,45.17
2023-01-07T01:11:11.770Z,44.64
2023-01-07T01:12:11.755Z,44.74
2023-01-07T01:13:11.719Z,44.78
2023-01-07T01:14:11.736Z,44.64
2023-01-07T01:15:11.695Z,44.69
2023-01-07T01:16:11.715Z,44.69
2023-01-07T01:17:11.671Z,44.98
2023-01-07T01:18:11.684Z,44.98
2023-01-07T01:19:11.992Z,45.17
2023-01-07T01:20:11.638Z,45.27
2023-01-07T01:21:11.701Z,45.62
2023-01-07T01:22:11.619Z,45.47
2023-01-07T01:23:11.613Z,45.47
2023-01-07T01:24:11.604Z,45.57
2023-01-07T01:25:11.599Z,45.47
2023-01-07T01:26:11.582Z,45.47
2023-01-07T01:27:11.608Z,45.27
2023-01-07T01:28:11.639Z,45.87
2023-01-07T01:29:11.565Z,45.62
2023-01-07T01:30:11.544Z,45.82
2023-01-07T01:31:11.634Z,45.67
2023-01-07T01:32:11.519Z,45.62
2023-01-07T01:33:11.551Z,45.52
2023-01-07T01:34:11.518Z,45.67
2023-01-07T01:35:11.494Z,45.52
2023-01-07T01:36:11.473Z,45.47
2023-01-07T01:37:11.489Z,45.37
2023-01-07T01:38:11.521Z,45.32
2023-01-07T01:39:11.467Z,45.77
2023-01-07T01:40:11.509Z,45.67
2023-01-07T01:41:11.447Z,46.12
2023-01-07T01:42:11.425Z,45.97
2023-01-07T01:43:11.466Z,46.07
2023-01-07T01:44:11.402Z,45.97
2023-01-07T01:45:11.403Z,46.02
2023-01-07T01:46:11.406Z,46.38
2023-01-07T01:47:11.370Z,46.17
2023-01-07T01:48:11.371Z,46.23
2023-01-07T01:49:11.376Z,46.23
2023-01-07T01:50:11.351Z,46.23
2023-01-07T01:51:11.354Z,46.87
2023-01-07T01:52:11.358Z,46.69
2023-01-07T01:53:11.349Z,46.59
2023-01-07T01:54:11.300Z,46.54
2023-01-07T01:55:11.317Z,46.80
2023-01-07T01:56:11.284Z,46.87
2023-01-07T01:57:11.310Z,46.64
2023-01-07T01:58:11.270Z,46.64
2023-01-07T01:59:11.251Z,46.23
2023-01-07T02:00:11.267Z,46.12
2023-01-07T02:01:11.356Z,46.07
2023-01-07T02:02:11.405Z,45.77
2023-01-07T02:03:11.223Z,45.42
2023-01-07T02:04:11.210Z,45.52
2023-01-07T02:05:11.265Z,45.37
2023-01-07T02:06:11.194Z,45.22
2023-01-07T02:07:11.224Z,45.17
2023-01-07T02:08:11.189Z,45.17
2023-01-07T02:09:11.159Z,44.98
2023-01-07T02:10:11.225Z,45.12
2023-01-07T02:11:11.172Z,44.78
2023-01-07T02:12:11.160Z,44.83
2023-01-07T02:13:11.140Z,44.98
2023-01-07T02:14:11.105Z,45.52
2023-01-07T02:15:11.188Z,45.67
2023-01-07T02:16:11.135Z,45.97
2023-01-07T02:17:11.093Z,46.17
2023-01-07T02:18:11.076Z,46.43
2023-01-07T02:19:11.054Z,46.43
2023-01-07T02:20:11.067Z,46.07
2023-01-07T02:21:11.071Z,46.07
2023-01-07T02:22:11.035Z,45.77
2023-01-07T02:23:11.091Z,45.47
2023-01-07T02:24:11.010Z,45.57
2023-01-07T02:25:11.007Z,45.87
2023-01-07T02:26:11.025Z,45.72
2023-01-07T02:27:10.989Z,45.87
2023-01-07T02:28:11.031Z,45.97
2023-01-07T02:29:10.979Z,45.92
2023-01-07T02:30:10.986Z,45.77
2023-01-07T02:31:11.069Z,45.67
2023-01-07T02:32:10.950Z,46.02
2023-01-07T02:33:10.967Z,45.67
2023-01-07T02:34:10.936Z,45.67
2023-01-07T02:35:10.931Z,45.57
2023-01-07T02:36:10.897Z,45.77
2023-01-07T02:37:10.892Z,45.47
2023-01-07T02:38:10.874Z,45.47
2023-01-07T02:39:10.920Z,45.32
2023-01-07T02:40:10.914Z,45.37
2023-01-07T02:41:10.844Z,45.03
2023-01-07T02:42:10.833Z,44.83
2023-01-07T02:43:10.830Z,44.59
2023-01-07T02:44:10.814Z,44.64
2023-01-07T02:45:10.804Z,44.17
2023-01-07T02:46:10.866Z,44.07
2023-01-07T02:47:10.800Z,43.93
2023-01-07T02:48:10.776Z,43.84
2023-01-07T02:49:10.774Z,43.65
2023-01-07T02:50:10.775Z,43.79
2023-01-07T02:51:10.813Z,43.84
2023-01-07T02:52:10.772Z,44.26
2023-01-07T02:53:10.730Z,44.50
2023-01-07T02:54:10.746Z,44.74
2023-01-07T02:55:10.715Z,44.98
2023-01-07T02:56:10.723Z,45.37
2023-01-07T02:57:10.707Z,45.22
2023-01-07T02:58:10.711Z,45.37
2023-01-07T02:59:10.753Z,45.22
2023-01-07T03:00:10.678Z,45.37
2023-01-07T03:01:10.816Z,45.72
2023-01-07T03:02:10.643Z,46.07
2023-01-07T03:03:10.645Z,46.17
2023-01-07T03:04:10.694Z,46.80
2023-01-07T03:05:10.712Z,46.80
2023-01-07T03:06:10.621Z,47.03
2023-01-07T03:07:10.604Z,47.06
2023-01-07T03:08:10.578Z,47.30
2023-01-07T03:09:10.608Z,47.46
2023-01-07T03:10:10.607Z,47.27
2023-01-07T03:11:10.574Z,47.35
2023-01-07T03:12:10.541Z,47.17
2023-01-07T03:13:10.614Z,47.46
2023-01-07T03:14:10.534Z,47.22
2023-01-07T03:15:10.576Z,47.01
2023-01-07T03:16:10.532Z,46.93
2023-01-07T03:17:10.502Z,46.69
2023-01-07T03:18:10.564Z,46.54
2023-01-07T03:19:10.525Z,46.59
2023-01-07T03:20:10.459Z,46.80
2023-01-07T03:21:10.477Z,46.49
2023-01-07T03:22:10.436Z,46.54
2023-01-07T03:23:10.427Z,46.59
2023-01-07T03:24:10.432Z,46.49
2023-01-07T03:25:10.447Z,46.49
2023-01-07T03:26:10.397Z,46.43
2023-01-07T03:27:10.400Z,46.54
2023-01-07T03:28:10.417Z,46.38
2023-01-07T03:29:10.383Z,46.49
2023-01-07T03:30:10.360Z,46.69
2023-01-07T03:31:10.346Z,46.80
2023-01-07T03:32:10.372Z,46.54
2023-01-07T03:33:10.348Z,46.33
2023-01-07T03:34:10.335Z,46.28
2023-01-07T03:35:10.317Z,46.54
2023-01-07T03:36:10.304Z,45.87
2023-01-07T03:37:10.290Z,45.77
2023-01-07T03:38:10.300Z,45.37
2023-01-07T03:39:10.281Z,45.17
2023-01-07T03:40:10.286Z,45.37
2023-01-07T03:41:10.261Z,45.12
2023-01-07T03:42:10.262Z,45.32
2023-01-07T03:43:10.225Z,45.03
2023-01-07T03:44:10.242Z,44.83
2023-01-07T03:45:10.224Z,44.88
2023-01-07T03:46:10.314Z,45.07
2023-01-07T03:47:10.244Z,44.59
2023-01-07T03:48:10.214Z,44.78
2023-01-07T03:49:10.187Z,44.45
2023-01-07T03:50:10.196Z,44.26
2023-01-07T03:51:10.166Z,44.40
2023-01-07T03:52:10.148Z,44.17
2023-01-07T03:53:10.189Z,43.98
2023-01-07T03:54:10.136Z,43.75
2023-01-07T03:55:10.157Z,43.75
2023-01-07T03:56:10.144Z,43.93
2023-01-07T03:57:10.096Z,44.03
2023-01-07T03:58:10.133Z,43.89
2023-01-07T03:59:10.126Z,44.03
2023-01-07T04:00:10.075Z,44.07
2023-01-07T04:01:10.177Z,43.98
2023-01-07T04:02:10.163Z,43.93
2023-01-07T04:03:10.075Z,44.03
2023-01-07T04:04:10.068Z,44.21
2023-01-07T04:05:10.045Z,44.07
2023-01-07T04:06:10.024Z,44.12
2023-01-07T04:07:10.005Z,44.45
2023-01-07T04:08:10.010Z,44.64
2023-01-07T04:09:09.975Z,44.69
2023-01-07T04:10:09.983Z,44.69
2023-01-07T04:11:09.987Z,44.83
2023-01-07T04:12:09.962Z,44.88
2023-01-07T04:13:09.937Z,44.64
2023-01-07T04:14:09.931Z,44.98
2023-01-07T04:15:09.955Z,45.03
2023-01-07T04:16:10.034Z,45.07
2023-01-07T04:17:09.909Z,44.98
2023-01-07T04:18:09.888Z,44.93
2023-01-07T04:19:09.902Z,44.93
2023-01-07T04:20:09.877Z,44.98
2023-01-07T04:21:09.867Z,44.98
2023-01-07T04:22:09.866Z,45.17
2023-01-07T04:23:09.835Z,44.98
2023-01-07T04:24:09.871Z,45.12
2023-01-07T04:25:09.822Z,44.98
2023-01-07T04:26:09.815Z,44.88
2023-01-07T04:27:09.821Z,45.03
2023-01-07T04:28:09.792Z,45.07
2023-01-07T04:29:09.925Z,45.03
2023-01-07T04:30:09.776Z,44.83
2023-01-07T04:31:09.883Z,44.93
2023-01-07T04:32:09.769Z,44.88
2023-01-07T04:33:09.750Z,44.78
2023-01-07T04:34:09.744Z,44.69
2023-01-07T04:35:09.718Z,44.83
2023-01-07T04:36:09.741Z,44.98
2023-01-07T04:37:09.699Z,44.83
2023-01-07T04:38:09.689Z,44.98
2023-01-07T04:39:09.720Z,44.93
2023-01-07T04:40:09.685Z,44.69
2023-01-07T04:41:09.656Z,44.98
2023-01-07T04:42:09.680Z,44.83
2023-01-07T04:43:09.665Z,44.78
2023-01-07T04:44:09.634Z,44.59
2023-01-07T04:45:09.682Z,44.40
2023-01-07T04:46:09.654Z,44.98
2023-01-07T04:47:09.610Z,44.78
2023-01-07T04:48:09.621Z,44.64
2023-01-07T04:49:09.599Z,44.69
2023-01-07T04:50:09.598Z,44.83
2023-01-07T04:51:09.564Z,44.78
2023-01-07T04:52:09.581Z,44.88
2023-01-07T04:53:09.559Z,44.98
2023-01-07T04:54:09.568Z,45.07
2023-01-07T04:55:09.554Z,44.98
2023-01-07T04:56:09.530Z,44.74
2023-01-07T04:57:09.510Z,45.07
2023-01-07T04:58:09.506Z,44.93
2023-01-07T04:59:09.525Z,44.93
2023-01-07T05:00:09.473Z,44.83
2023-01-07T05:01:09.620Z,44.93
2023-01-07T05:02:09.559Z,44.69
2023-01-07T05:03:11.984Z,44.69
2023-01-07T05:04:09.511Z,44.93
2023-01-07T05:05:09.420Z,44.83
2023-01-07T05:06:09.443Z,45.17
2023-01-07T05:07:09.458Z,45.03
2023-01-07T05:08:09.415Z,44.98
2023-01-07T05:09:09.386Z,44.93
2023-01-07T05:10:09.401Z,44.69
2023-01-07T05:11:09.413Z,44.88
2023-01-07T05:12:09.364Z,44.78
2023-01-07T05:13:09.393Z,44.59
2023-01-07T05:14:09.338Z,44.40
2023-01-07T05:15:09.358Z,44.59
2023-01-07T05:16:09.339Z,44.74
2023-01-07T05:17:09.314Z,44.54
2023-01-07T05:18:09.349Z,44.78
2023-01-07T05:19:09.289Z,44.54
2023-01-07T05:20:09.291Z,44.31
2023-01-07T05:21:09.291Z,44.31
2023-01-07T05:22:09.269Z,44.17
2023-01-07T05:23:09.269Z,44.12
2023-01-07T05:24:09.238Z,44.07
2023-01-07T05:25:09.252Z,43.79
2023-01-07T05:26:09.236Z,44.12
2023-01-07T05:27:09.215Z,44.03
2023-01-07T05:28:09.253Z,43.98
2023-01-07T05:29:09.197Z,43.93
2023-01-07T05:30:09.201Z,43.70
2023-01-07T05:31:09.241Z,43.61
2023-01-07T05:32:09.187Z,43.47
2023-01-07T05:33:09.162Z,43.47
2023-01-07T05:34:09.148Z,43.56
2023-01-07T05:35:09.149Z,43.75
2023-01-07T05:36:09.176Z,43.70
2023-01-07T05:37:09.117Z,44.03
2023-01-07T05:38:09.130Z,44.07
2023-01-07T05:39:09.112Z,44.17
2023-01-07T05:40:09.085Z,44.21
2023-01-07T05:41:09.081Z,44.64
2023-01-07T05:42:09.083Z,44.78
2023-01-07T05:43:09.055Z,44.74
2023-01-07T05:44:09.067Z,44.88
2023-01-07T05:45:09.048Z,44.64
2023-01-07T05:46:09.065Z,44.59
2023-01-07T05:47:09.006Z,44.54
2023-01-07T05:48:09.017Z,44.21
2023-01-07T05:49:09.051Z,44.26
2023-01-07T05:50:09.005Z,44.12
2023-01-07T05:51:08.973Z,43.75
2023-01-07T05:52:08.975Z,43.75
2023-01-07T05:53:08.970Z,43.65
2023-01-07T05:54:08.951Z,43.43
2023-01-07T05:55:08.965Z,43.25
2023-01-07T05:56:08.919Z,43.02
2023-01-07T05:57:08.949Z,42.89
2023-01-07T05:58:08.918Z,42.80
2023-01-07T05:59:08.893Z,42.58
2023-01-07T06:00:08.880Z,42.71
2023-01-07T06:01:08.954Z,42.71
2023-01-07T06:02:08.919Z,42.67
2023-01-07T06:03:08.877Z,42.54
2023-01-07T06:04:08.841Z,42.67
2023-01-07T06:05:08.926Z,42.76
2023-01-07T06:06:08.845Z,42.80
2023-01-07T06:07:08.841Z,43.07
2023-01-07T06:08:08.845Z,43.29
2023-01-07T06:09:08.798Z,43.52
2023-01-07T06:10:08.788Z,43.56
2023-01-07T06:11:08.813Z,43.65
2023-01-07T06:12:08.771Z,43.84
2023-01-07T06:13:08.781Z,43.65
2023-01-07T06:14:08.757Z,43.65
2023-01-07T06:15:08.764Z,43.61
2023-01-07T06:16:08.778Z,43.61
2023-01-07T06:17:08.732Z,43.29
2023-01-07T06:18:08.769Z,43.11
2023-01-07T06:19:08.731Z,43.47
2023-01-07T06:20:08.698Z,43.47
2023-01-07T06:21:08.679Z,43.34
2023-01-07T06:22:08.668Z,43.34
2023-01-07T06:23:08.692Z,43.47
2023-01-07T06:24:08.659Z,43.65
2023-01-07T06:25:08.637Z,43.56
2023-01-07T06:26:08.682Z,43.65
2023-01-07T06:27:08.619Z,44.07
2023-01-07T06:28:08.606Z,44.12
2023-01-07T06:29:08.623Z,44.07
2023-01-07T06:30:08.627Z,43.93
2023-01-07T06:31:08.604Z,43.75
2023-01-07T06:32:08.600Z,43.70
2023-01-07T06:33:08.577Z,44.03
2023-01-07T06:34:08.545Z,43.84
2023-01-07T06:35:08.559Z,43.84
2023-01-07T06:36:08.547Z,43.61
2023-01-07T06:37:08.472Z,43.84
2023-01-07T06:38:08.474Z,43.65
2023-01-07T06:39:08.542Z,43.47
2023-01-07T06:40:08.503Z,43.34
2023-01-07T06:41:08.497Z,43.20
2023-01-07T06:42:08.514Z,43.07
2023-01-07T06:43:08.425Z,42.85
2023-01-07T06:44:08.389Z,42.98
2023-01-07T06:45:08.390Z,42.76
2023-01-07T06:46:08.453Z,42.54
2023-01-07T06:47:08.381Z,42.19
2023-01-07T06:48:08.391Z,42.32
2023-01-07T06:49:08.355Z,41.94
2023-01-07T06:50:08.331Z,42.02
2023-01-07T06:51:08.331Z,41.98
2023-01-07T06:52:08.343Z,42.07
2023-01-07T06:53:08.313Z,42.50
2023-01-07T06:54:08.315Z,42.37
2023-01-07T06:55:08.294Z,42.37
2023-01-07T06:56:08.288Z,42.19
2023-01-07T06:57:08.270Z,42.37
2023-01-07T06:58:08.275Z,42.32
2023-01-07T06:59:08.282Z,42.76
2023-01-07T07:00:08.268Z,42.76
2023-01-07T07:01:08.409Z,42.50
2023-01-07T07:02:08.233Z,42.67
2023-01-07T07:03:08.232Z,42.71
2023-01-07T07:04:08.221Z,42.80
2023-01-07T07:05:08.193Z,42.67
2023-01-07T07:06:08.211Z,42.54
2023-01-07T07:07:08.180Z,42.71
2023-01-07T07:08:08.178Z,42.76
2023-01-07T07:09:08.175Z,42.89
2023-01-07T07:10:08.151Z,42.80
2023-01-07T07:11:08.130Z,42.80
2023-01-07T07:12:08.136Z,42.94
2023-01-07T07:13:08.139Z,43.11
2023-01-07T07:14:08.103Z,43.02
2023-01-07T07:15:08.085Z,43.38
2023-01-07T07:16:08.177Z,43.34
2023-01-07T07:17:08.093Z,43.38
2023-01-07T07:18:08.064Z,43.52
2023-01-07T07:19:08.056Z,43.98
2023-01-07T07:20:08.037Z,43.79
2023-01-07T07:21:08.026Z,44.07
2023-01-07T07:22:08.034Z,44.03
2023-01-07T07:23:08.010Z,43.98
2023-01-07T07:24:08.025Z,43.98
2023-01-07T07:25:08.004Z,44.03
2023-01-07T07:26:07.978Z,44.07
2023-01-07T07:27:07.960Z,44.17
2023-01-07T07:28:07.979Z,44.17
2023-01-07T07:29:07.979Z,44.26
2023-01-07T07:30:07.962Z,44.21
2023-01-07T07:31:08.053Z,44.40
2023-01-07T07:32:07.921Z,44.54
2023-01-07T07:33:07.901Z,44.88
2023-01-07T07:34:07.922Z,45.22
2023-01-07T07:35:07.960Z,45.52
2023-01-07T07:36:07.897Z,45.62
2023-01-07T07:37:07.904Z,45.97
2023-01-07T07:38:07.855Z,46.02
2023-01-07T07:39:07.858Z,46.54
2023-01-07T07:40:07.879Z,46.85
2023-01-07T07:41:07.838Z,46.96
2023-01-07T07:42:07.825Z,46.98
2023-01-07T07:43:11.383Z,47.17
2023-01-07T07:44:07.798Z,47.03
2023-01-07T07:45:07.827Z,47.11
2023-01-07T07:46:07.869Z,47.03
2023-01-07T07:47:07.801Z,47.38
2023-01-07T07:48:07.790Z,47.38
2023-01-07T07:49:07.775Z,47.27
2023-01-07T07:50:07.766Z,47.11
2023-01-07T07:51:07.732Z,47.17
2023-01-07T07:52:07.759Z,47.27
2023-01-07T07:53:07.711Z,48.12
2023-01-07T07:54:07.699Z,48.37
2023-01-07T07:55:20.757Z,49.29
2023-01-07T07:56:07.746Z,50.71
2023-01-07T07:57:07.673Z,51.62
2023-01-07T07:58:07.712Z,52.27
2023-01-07T07:59:07.723Z,53.14
2023-01-07T08:00:07.663Z,53.96
2023-01-07T08:01:07.707Z,55.15
2023-01-07T08:02:07.693Z,55.59
2023-01-07T08:03:07.703Z,56.69
2023-01-07T08:04:07.598Z,57.99
2023-01-07T08:05:07.587Z,59.53
2023-01-07T08:06:07.585Z,60.88
2023-01-07T08:07:07.595Z,62.29
2023-01-07T08:08:07.562Z,65.59
2023-01-07T08:09:07.571Z,68.79
2023-01-07T08:10:07.554Z,72.32
2023-01-07T08:11:07.559Z,75.75
2023-01-07T08:12:07.524Z,78.61
2023-01-07T08:13:07.525Z,80.75
2023-01-07T08:14:07.534Z,82.27
2023-01-07T08:15:07.517Z,84.96
2023-01-07T08:16:07.539Z,88.40
2023-01-07T08:17:07.471Z,90.71
2023-01-07T08:18:07.483Z,94.42
2023-01-07T08:19:07.456Z,95.82
2023-01-07T08:20:07.472Z,98.31
2023-01-07T08:21:07.436Z,103.07
2023-01-07T08:22:07.460Z,106.98
2023-01-07T08:23:07.428Z,111.13
2023-01-07T08:24:07.403Z,114.89
2023-01-07T08:25:07.414Z,121.79
2023-01-07T08:26:07.419Z,132.68
2023-01-07T08:27:07.381Z,144.57
2023-01-07T08:28:07.398Z,159.09
2023-01-07T08:29:07.376Z,175.93
2023-01-07T08:30:07.350Z,189.09
2023-01-07T08:31:07.379Z,207.98
2023-01-07T08:32:07.340Z,228.32
2023-01-07T08:33:07.361Z,245.46
2023-01-07T08:34:07.361Z,261.78
2023-01-07T08:35:07.308Z,278.04
2023-01-07T08:36:18.242Z,290.39
2023-01-07T08:37:07.340Z,301.64
2023-01-07T08:38:07.345Z,314.10
2023-01-07T08:39:07.264Z,315.01
2023-01-07T08:40:08.226Z,319.94
2023-01-07T08:41:07.281Z,337.80
2023-01-07T08:42:07.235Z,345.65
2023-01-07T08:43:07.216Z,359.73
2023-01-07T08:44:07.244Z,377.16
2023-01-07T08:45:07.208Z,388.73
2023-01-07T08:46:07.198Z,386.69
2023-01-07T08:47:07.199Z,396.62
2023-01-07T08:48:07.198Z,418.35
2023-01-07T08:49:07.181Z,436.20
2023-01-07T08:50:06.183Z,457.85
2023-01-07T08:51:07.154Z,480.01
2023-01-07T08:52:07.146Z,498.00
2023-01-07T08:53:07.137Z,521.46
2023-01-07T08:54:07.122Z,545.88
2023-01-07T08:55:07.103Z,564.43
2023-01-07T08:56:07.180Z,596.35
2023-01-07T08:57:07.121Z,614.56
2023-01-07T08:58:07.099Z,630.90
2023-01-07T08:59:07.068Z,673.77
2023-01-07T09:00:07.051Z,710.52
2023-01-07T09:01:07.229Z,761.30
2023-01-07T09:02:07.260Z,788.38
2023-01-07T09:03:07.045Z,806.06
2023-01-07T09:04:07.022Z,839.65
2023-01-07T09:05:07.017Z,859.73
2023-01-07T09:06:07.079Z,859.17
2023-01-07T09:07:07.050Z,870.99
2023-01-07T09:08:06.993Z,890.23
2023-01-07T09:09:06.960Z,883.13
2023-01-07T09:10:06.964Z,873.28
2023-01-07T09:11:06.954Z,894.42
2023-01-07T09:12:08.807Z,918.51
2023-01-07T09:13:06.943Z,945.95
2023-01-07T09:14:06.923Z,958.21
2023-01-07T09:15:06.914Z,997.00
2023-01-07T09:16:06.985Z,1016.82
2023-01-07T09:17:06.901Z,1044.78
2023-01-07T09:18:06.892Z,1073.45
2023-01-07T09:19:06.891Z,1107.41
2023-01-07T09:20:06.885Z,1120.47
2023-01-07T09:21:06.876Z,1127.12
2023-01-07T09:22:06.828Z,1118.59
2023-01-07T09:23:06.895Z,1085.71
2023-01-07T09:24:06.830Z,1079.55
2023-01-07T09:25:06.831Z,1095.55
2023-01-07T09:26:06.870Z,1143.59
2023-01-07T09:27:06.776Z,1189.62
2023-01-07T09:28:06.768Z,1236.06
2023-01-07T09:29:06.773Z,1242.99
2023-01-07T09:30:06.765Z,1277.62
2023-01-07T09:31:06.747Z,1288.76
2023-01-07T09:32:06.793Z,1307.77
2023-01-07T09:33:06.753Z,1311.64
2023-01-07T09:34:06.711Z,1342.08
2023-01-07T09:35:06.721Z,1361.31
2023-01-07T09:36:06.816Z,1347.52
2023-01-07T09:37:06.731Z,1362.70
2023-01-07T09:38:06.729Z,1392.67
2023-01-07T09:39:06.699Z,1404.44
2023-01-07T09:40:06.669Z,1402.95
2023-01-07T09:41:06.643Z,1398.53
2023-01-07T09:42:06.670Z,1408.90
2023-01-07T09:43:06.657Z,1431.65
2023-01-07T09:44:06.623Z,1461.54
2023-01-07T09:45:06.613Z,1476.14
2023-01-07T09:46:06.723Z,1482.72
2023-01-07T09:47:06.581Z,1501.13
2023-01-07T09:48:06.634Z,1495.22
2023-01-07T09:49:06.627Z,1550.12
2023-01-07T09:50:06.579Z,1541.14
2023-01-07T09:51:06.567Z,1537.57
2023-01-07T09:52:06.557Z,1528.73
2023-01-07T09:53:06.545Z,1580.51
2023-01-07T09:54:06.525Z,1610.17
2023-01-07T09:55:06.555Z,1620.96
2023-01-07T09:56:12.336Z,1607.25
2023-01-07T09:57:06.504Z,1596.64
2023-01-07T09:58:06.501Z,1611.14
2023-01-07T09:59:06.523Z,1619.97
2023-01-07T10:00:06.465Z,1631.90
2023-01-07T10:01:06.605Z,1662.50
2023-01-07T10:02:06.496Z,1668.76
2023-01-07T10:03:06.552Z,1679.29
2023-01-07T10:04:06.572Z,1675.06
2023-01-07T10:05:06.501Z,1658.35
2023-01-07T10:06:06.415Z,1659.39
2023-01-07T10:07:06.411Z,1657.32
2023-01-07T10:08:29.369Z,1632.90
2023-01-07T10:09:06.446Z,1655.26
2023-01-07T10:10:06.412Z,1708.41
2023-01-07T10:11:06.408Z,1753.46
2023-01-07T10:12:06.385Z,1759.26
2023-01-07T10:13:06.351Z,1774.52
2023-01-07T10:14:06.360Z,1765.10
2023-01-07T10:15:06.371Z,1763.93
2023-01-07T10:16:06.364Z,1745.41
2023-01-07T10:17:06.435Z,1704.04
2023-01-07T10:18:07.919Z,1683.54
2023-01-07T10:19:06.295Z,1694.27
2023-01-07T10:20:06.276Z,1696.43
2023-01-07T10:21:06.304Z,1719.46
2023-01-07T10:22:06.279Z,1745.41
2023-01-07T10:23:06.265Z,1736.29
2023-01-07T10:24:06.254Z,1735.16
2023-01-07T10:25:06.208Z,1758.10
2023-01-07T10:26:06.245Z,1769.79
2023-01-07T10:27:06.241Z,1775.70
2023-01-07T10:28:06.185Z,1808.29
2023-01-07T10:29:06.231Z,1807.06
2023-01-07T10:30:06.191Z,1865.36
2023-01-07T10:31:06.148Z,1885.19
2023-01-07T10:32:06.147Z,1858.84
2023-01-07T10:33:06.144Z,1858.84
2023-01-07T10:34:06.125Z,1919.19
2023-01-07T10:35:06.173Z,1910.92
2023-01-07T10:36:06.133Z,1934.55
2023-01-07T10:37:06.130Z,1958.76
2023-01-07T10:38:06.126Z,1937.36
2023-01-07T10:39:06.104Z,1963.10
2023-01-07T10:40:06.080Z,1944.44
2023-01-07T10:41:06.051Z,1960.21
2023-01-07T10:42:06.034Z,2000.00
2023-01-07T10:43:06.064Z,2013.63
2023-01-07T10:44:06.036Z,2054.05
2023-01-07T10:45:06.017Z,2081.38
2023-01-07T10:46:06.126Z,2121.21
2023-01-07T10:47:06.171Z,2143.43
2023-01-07T10:48:05.985Z,2128.00
2023-01-07T10:49:06.005Z,2066.82
2023-01-07T10:50:05.969Z,2052.47
2023-01-07T10:51:05.966Z,2074.88
2023-01-07T10:52:05.948Z,2084.64
2023-01-07T10:53:05.927Z,2116.15
2023-01-07T10:54:05.932Z,2131.41
2023-01-07T10:55:05.919Z,2173.20
2023-01-07T10:56:05.925Z,2174.98
2023-01-07T10:57:05.924Z,2214.82
2023-01-07T10:58:05.878Z,2237.17
2023-01-07T10:59:05.896Z,2224.08
2023-01-07T11:00:05.881Z,2231.54
2023-01-07T11:01:06.042Z,2222.22
2023-01-07T11:02:06.023Z,2239.06
2023-01-07T11:03:05.919Z,2285.22
2023-01-07T11:04:05.841Z,2295.08
2023-01-07T11:05:05.869Z,2283.26
2023-01-07T11:06:05.802Z,2297.06
2023-01-07T11:07:05.786Z,2291.13
2023-01-07T11:08:05.778Z,2356.07
2023-01-07T11:09:05.794Z,2331.29
2023-01-07T11:10:05.772Z,2325.17
2023-01-07T11:11:05.744Z,2347.75
2023-01-07T11:12:05.742Z,2335.38
2023-01-07T11:13:05.723Z,2349.82
2023-01-07T11:14:05.724Z,2370.77
2023-01-07T11:15:05.732Z,2360.25
2023-01-07T11:16:05.711Z,2275.45
2023-01-07T11:17:05.739Z,2244.73
2023-01-07T11:18:05.686Z,2248.52
2023-01-07T11:19:05.663Z,2295.08
2023-01-07T11:20:05.669Z,2337.43
2023-01-07T11:21:05.730Z,2343.61
2023-01-07T11:22:05.645Z,2349.82
2023-01-07T11:23:05.671Z,2311.03
2023-01-07T11:24:05.627Z,2244.73
2023-01-07T11:25:05.633Z,2187.50
2023-01-07T11:26:05.627Z,2169.66
2023-01-07T11:27:05.644Z,2211.14
2023-01-07T11:28:05.589Z,2319.09
2023-01-07T11:29:05.562Z,2311.03
2023-01-07T11:30:05.573Z,2275.45
2023-01-07T11:31:05.584Z,2289.16
2023-01-07T11:32:05.738Z,2269.62
2023-01-07T11:33:05.594Z,2225.94
2023-01-07T11:34:05.537Z,2252.33
2023-01-07T11:35:05.567Z,2240.94
2023-01-07T11:36:05.545Z,2207.47
2023-01-07T11:37:05.525Z,2216.67
2023-01-07T11:38:05.488Z,2229.67
2023-01-07T11:39:05.495Z,2222.22
2023-01-07T11:40:05.477Z,2220.37
2023-01-07T11:41:05.453Z,2237.17
2023-01-07T11:42:05.503Z,2263.83
2023-01-07T11:43:05.441Z,2225.94
2023-01-07T11:44:05.468Z,2252.33
2023-01-07T11:45:05.418Z,2267.69
2023-01-07T11:46:23.916Z,2321.12
2023-01-07T11:47:05.423Z,2327.21
2023-01-07T11:48:05.378Z,2293.10
2023-01-07T11:49:05.403Z,2358.16
2023-01-07T11:50:05.410Z,2360.25
2023-01-07T11:51:05.358Z,2333.33
2023-01-07T11:52:05.424Z,2256.15
2023-01-07T11:53:05.336Z,2240.94
2023-01-07T11:54:05.328Z,2240.94
2023-01-07T11:55:05.322Z,2256.15
2023-01-07T11:56:05.332Z,2246.62
2023-01-07T11:57:05.310Z,2269.62
2023-01-07T11:58:27.999Z,2283.26
2023-01-07T11:59:05.308Z,2325.17
2023-01-07T12:00:05.291Z,2420.38
2023-01-07T12:01:05.291Z,2511.80
2023-01-07T12:02:05.366Z,2472.12
2023-01-07T12:03:05.351Z,2389.94
2023-01-07T12:04:05.225Z,2440.37
2023-01-07T12:05:05.246Z,2335.38
2023-01-07T12:06:05.216Z,2258.06
2023-01-07T12:07:05.183Z,2364.44
2023-01-07T12:08:05.177Z,2438.13
2023-01-07T12:09:05.163Z,2411.60
2023-01-07T12:10:05.185Z,2368.66
2023-01-07T12:11:05.176Z,2372.88
2023-01-07T12:12:05.142Z,2424.79
2023-01-07T12:13:05.157Z,2420.38
2023-01-07T12:14:05.126Z,2514.18
2023-01-07T12:15:05.124Z,2479.03
2023-01-07T12:16:05.108Z,2492.97
2023-01-07T12:17:05.083Z,2495.31
2023-01-07T12:18:05.093Z,2557.69
2023-01-07T12:19:05.100Z,2516.56
2023-01-07T12:20:05.059Z,2521.33
2023-01-07T12:21:05.061Z,2467.53
2023-01-07T12:22:05.051Z,2358.16
2023-01-07T12:23:05.021Z,2353.98
2023-01-07T12:24:05.015Z,2335.38
2023-01-07T12:25:05.020Z,2327.21
2023-01-07T12:26:05.009Z,2311.03
2023-01-07T12:27:04.994Z,2261.90
2023-01-07T12:28:04.975Z,2185.70
2023-01-07T12:29:04.971Z,2141.71
2023-01-07T12:30:04.974Z,2192.91
2023-01-07T12:31:05.034Z,2187.50
2023-01-07T12:32:04.936Z,2207.47
2023-01-07T12:33:04.931Z,2180.33
2023-01-07T12:34:04.952Z,2166.12
2023-01-07T12:35:14.819Z,2152.10
2023-01-07T12:36:04.904Z,2117.83
2023-01-07T12:37:04.873Z,2159.09